createdAt,value
2018-11-25T00:00:23.218Z,2.40
2018-11-25T00:02:51.436Z,2.40
2018-11-25T00:05:19.674Z,2.40
2018-11-25T00:07:47.877Z,2.40
2018-11-25T00:10:16.118Z,2.40
2018-11-25T00:12:44.314Z,2.40
2018-11-25T00:17:56.230Z,2.30
2018-11-25T00:20:24.507Z,2.30
2018-11-25T00:22:52.744Z,2.20
2018-11-25T00:25:20.942Z,2.20
2018-11-25T00:27:49.179Z,2.20
2018-11-25T00:30:17.405Z,2.20
2018-11-25T00:32:45.627Z,2.20
2018-11-25T00:35:14.864Z,2.20
2018-11-25T00:37:47.975Z,2.20
2018-11-25T00:40:12.603Z,2.20
2018-11-25T00:42:40.838Z,2.30
2018-11-25T00:45:13.196Z,2.20
2018-11-25T00:47:41.436Z,2.20
2018-11-25T00:50:11.123Z,2.20
2018-11-25T00:52:39.297Z,2.20
2018-11-25T00:55:10.709Z,2.20
2018-11-25T00:57:38.882Z,2.20
2018-11-25T01:00:11.272Z,2.20
2018-11-25T01:02:39.468Z,2.20
2018-11-25T01:05:08.510Z,2.20
2018-11-25T01:07:36.707Z,2.10
2018-11-25T01:10:06.805Z,2.10
2018-11-25T01:12:35.039Z,2.10
2018-11-25T01:15:03.299Z,2.10
2018-11-25T01:17:31.510Z,2.20
2018-11-25T01:19:59.726Z,2.10
2018-11-25T01:22:27.963Z,2.20
2018-11-25T01:24:56.166Z,2.10
2018-11-25T01:27:24.343Z,2.10
2018-11-25T01:29:52.554Z,2.00
2018-11-25T01:32:20.726Z,2.00
2018-11-25T01:34:48.954Z,1.90
2018-11-25T01:37:17.145Z,1.90
2018-11-25T01:39:45.347Z,1.80
2018-11-25T01:42:13.539Z,1.80
2018-11-25T01:44:41.744Z,1.70
2018-11-25T01:47:09.965Z,1.70
2018-11-25T01:49:38.151Z,1.70
2018-11-25T01:52:06.378Z,1.60
2018-11-25T01:54:34.606Z,1.60
2018-11-25T01:57:02.847Z,1.60
2018-11-25T01:59:31.019Z,1.50
2018-11-25T02:01:59.341Z,1.40
2018-11-25T02:04:27.531Z,1.40
2018-11-25T02:06:55.739Z,1.40
2018-11-25T02:09:23.988Z,1.40
2018-11-25T02:11:52.169Z,1.40
2018-11-25T02:14:20.378Z,1.40
2018-11-25T02:16:48.549Z,1.40
2018-11-25T02:19:16.782Z,1.40
2018-11-25T02:21:44.950Z,1.30
2018-11-25T02:24:13.208Z,1.30
2018-11-25T02:26:41.390Z,1.30
2018-11-25T02:29:09.602Z,1.30
2018-11-25T02:31:37.778Z,1.30
2018-11-25T02:34:06.434Z,1.20
2018-11-25T02:36:34.678Z,1.20
2018-11-25T02:39:03.055Z,1.20
2018-11-25T02:41:31.278Z,1.10
2018-11-25T02:43:59.485Z,1.10
2018-11-25T02:46:27.718Z,1.20
2018-11-25T02:48:55.901Z,1.10
2018-11-25T02:51:24.105Z,1.10
2018-11-25T02:53:52.293Z,1.10
2018-11-25T02:56:20.505Z,1.10
2018-11-25T02:58:48.674Z,1.10
2018-11-25T03:01:16.898Z,1.10
2018-11-25T03:03:45.103Z,1.10
2018-11-25T03:06:13.282Z,1.00
2018-11-25T03:08:41.495Z,1.00
2018-11-25T03:11:09.695Z,1.00
2018-11-25T03:13:37.898Z,1.00
2018-11-25T03:16:06.129Z,1.00
2018-11-25T03:18:34.366Z,0.90
2018-11-25T03:21:02.594Z,0.80
2018-11-25T03:23:30.857Z,0.90
2018-11-25T03:25:59.088Z,0.90
2018-11-25T03:28:27.266Z,0.80
2018-11-25T03:30:55.469Z,0.90
2018-11-25T03:33:23.671Z,0.80
2018-11-25T03:35:51.871Z,0.80
2018-11-25T03:38:20.045Z,0.80
2018-11-25T03:40:48.267Z,0.80
2018-11-25T03:43:16.438Z,0.80
2018-11-25T03:45:44.638Z,0.70
2018-11-25T03:48:12.803Z,0.80
2018-11-25T03:50:40.999Z,0.70
2018-11-25T03:53:09.170Z,0.70
2018-11-25T03:55:37.362Z,0.70
2018-11-25T03:58:05.830Z,0.70
2018-11-25T04:00:34.502Z,0.70
2018-11-25T04:03:02.838Z,0.70
2018-11-25T04:05:31.001Z,0.80
2018-11-25T04:07:59.202Z,0.80
2018-11-25T04:10:27.426Z,0.70
2018-11-25T04:12:55.582Z,0.70
2018-11-25T04:15:23.794Z,0.70
2018-11-25T04:17:51.999Z,0.70
2018-11-25T04:20:20.799Z,0.70
2018-11-25T04:22:49.419Z,0.70
2018-11-25T04:25:17.651Z,0.80
2018-11-25T04:27:45.914Z,0.80
2018-11-25T04:31:42.251Z,0.70
2018-11-25T04:34:10.426Z,0.60
2018-11-25T04:36:38.617Z,0.30
2018-11-25T04:39:08.925Z,0.40
2018-11-25T04:41:37.166Z,0.50
2018-11-25T04:44:05.562Z,0.50
2018-11-25T04:46:33.782Z,0.50
2018-11-25T04:49:01.996Z,0.50
2018-11-25T04:51:30.246Z,0.50
2018-11-25T04:53:58.441Z,0.40
2018-11-25T04:56:26.647Z,0.40
2018-11-25T04:58:54.842Z,0.40
2018-11-25T05:01:23.026Z,0.40
2018-11-25T05:03:51.258Z,0.40
2018-11-25T05:06:19.434Z,0.50
2018-11-25T05:08:47.630Z,0.50
2018-11-25T05:11:15.791Z,0.40
2018-11-25T05:13:44.002Z,0.50
2018-11-25T05:16:12.165Z,0.40
2018-11-25T05:18:40.370Z,0.40
2018-11-25T05:21:08.552Z,0.50
2018-11-25T05:23:36.785Z,0.50
2018-11-25T05:26:04.965Z,0.50
2018-11-25T05:28:33.331Z,0.50
2018-11-25T05:31:01.514Z,0.50
2018-11-25T05:33:29.735Z,0.50
2018-11-25T05:35:57.906Z,0.60
2018-11-25T05:38:26.106Z,0.70
2018-11-25T05:40:54.304Z,0.60
2018-11-25T05:43:22.521Z,0.60
2018-11-25T05:45:50.695Z,0.50
2018-11-25T05:48:18.916Z,0.60
2018-11-25T05:50:47.091Z,0.60
2018-11-25T05:53:15.298Z,0.60
2018-11-25T05:55:43.465Z,0.70
2018-11-25T05:58:11.682Z,0.70
2018-11-25T06:00:39.904Z,0.70
2018-11-25T06:03:08.246Z,0.70
2018-11-25T06:05:36.458Z,0.70
2018-11-25T06:08:04.810Z,0.80
2018-11-25T06:10:33.063Z,0.90
2018-11-25T06:13:01.283Z,0.80
2018-11-25T06:15:29.467Z,0.80
2018-11-25T06:17:57.678Z,0.80
2018-11-25T06:20:25.863Z,0.80
2018-11-25T06:22:54.137Z,0.90
2018-11-25T06:25:22.450Z,0.90
2018-11-25T06:27:50.715Z,0.90
2018-11-25T06:30:20.531Z,0.80
2018-11-25T06:32:48.825Z,0.70
2018-11-25T06:35:17.906Z,0.70
2018-11-25T06:37:46.124Z,0.70
2018-11-25T06:40:16.909Z,0.70
2018-11-25T06:42:45.127Z,0.60
2018-11-25T06:45:15.587Z,0.70
2018-11-25T06:47:43.805Z,0.80
2018-11-25T06:50:12.556Z,0.80
2018-11-25T06:52:40.750Z,0.70
2018-11-25T06:55:10.302Z,0.70
2018-11-25T06:57:38.490Z,0.70
2018-11-25T07:00:12.967Z,0.70
2018-11-25T07:02:41.202Z,0.70
2018-11-25T07:05:09.714Z,0.80
2018-11-25T07:07:38.022Z,0.80
2018-11-25T07:10:09.255Z,0.90
2018-11-25T07:12:37.502Z,0.90
2018-11-25T07:15:07.979Z,0.90
2018-11-25T07:17:36.217Z,0.90
2018-11-25T07:20:04.556Z,0.90
2018-11-25T07:22:32.822Z,0.90
2018-11-25T07:25:01.074Z,1.00
2018-11-25T07:27:29.270Z,1.10
2018-11-25T07:29:57.545Z,1.20
2018-11-25T07:32:25.727Z,1.20
2018-11-25T07:34:53.947Z,1.30
2018-11-25T07:37:22.125Z,1.30
2018-11-25T07:39:50.355Z,1.30
2018-11-25T07:42:18.559Z,1.30
2018-11-25T07:44:46.782Z,1.30
2018-11-25T07:47:14.977Z,1.30
2018-11-25T07:49:43.658Z,1.30
2018-11-25T07:52:11.950Z,1.30
2018-11-25T07:54:40.151Z,1.30
2018-11-25T07:57:08.381Z,1.30
2018-11-25T07:59:36.803Z,1.30
2018-11-25T08:02:05.439Z,1.30
2018-11-25T08:04:33.649Z,1.40
2018-11-25T08:07:01.903Z,1.40
2018-11-25T08:09:30.210Z,1.40
2018-11-25T08:11:58.423Z,1.40
2018-11-25T08:14:26.674Z,1.40
2018-11-25T08:16:54.887Z,1.40
2018-11-25T08:19:23.120Z,1.40
2018-11-25T08:21:51.341Z,1.50
2018-11-25T08:24:19.562Z,1.50
2018-11-25T08:26:47.803Z,1.50
2018-11-25T08:29:16.067Z,1.50
2018-11-25T08:31:44.350Z,1.50
2018-11-25T08:34:12.546Z,1.50
2018-11-25T08:36:40.779Z,1.60
2018-11-25T08:39:09.322Z,1.60
2018-11-25T08:41:37.615Z,1.60
2018-11-25T08:44:05.850Z,1.70
2018-11-25T08:46:34.116Z,1.70
2018-11-25T08:49:02.390Z,1.80
2018-11-25T08:51:30.602Z,1.90
2018-11-25T08:53:58.858Z,1.80
2018-11-25T08:56:27.067Z,1.90
2018-11-25T08:58:55.349Z,1.90
2018-11-25T09:01:23.542Z,1.80
2018-11-25T09:03:51.823Z,1.90
2018-11-25T09:06:20.043Z,2.00
2018-11-25T09:08:48.260Z,2.00
2018-11-25T09:11:16.470Z,2.00
2018-11-25T09:13:44.856Z,2.00
2018-11-25T09:16:13.046Z,2.00
2018-11-25T09:18:41.299Z,2.00
2018-11-25T09:21:09.547Z,2.00
2018-11-25T09:23:37.759Z,2.10
2018-11-25T09:26:06.027Z,2.10
2018-11-25T09:28:34.339Z,2.20
2018-11-25T09:31:05.202Z,2.20
2018-11-25T09:33:33.835Z,2.20
2018-11-25T09:36:02.227Z,2.30
2018-11-25T09:38:30.451Z,2.30
2018-11-25T09:40:59.250Z,2.40
2018-11-25T09:43:27.017Z,2.40
2018-11-25T09:45:55.222Z,2.40
2018-11-25T09:48:23.451Z,2.50
2018-11-25T09:50:51.656Z,2.50
2018-11-25T09:53:19.903Z,2.60
2018-11-25T09:55:48.122Z,2.60
2018-11-25T09:58:16.347Z,2.60
2018-11-25T10:00:44.546Z,2.70
2018-11-25T10:03:12.807Z,2.70
2018-11-25T10:05:41.007Z,2.70
2018-11-25T10:08:09.206Z,2.70
2018-11-25T10:10:37.475Z,2.80
2018-11-25T10:13:05.732Z,2.80
2018-11-25T10:15:34.007Z,2.80
2018-11-25T10:18:02.255Z,2.80
2018-11-25T10:20:31.429Z,2.80
2018-11-25T10:22:59.666Z,2.90
2018-11-25T10:25:27.910Z,2.90
2018-11-25T10:27:56.327Z,3.00
2018-11-25T10:30:27.752Z,2.90
2018-11-25T10:33:00.175Z,2.90
2018-11-25T10:35:28.430Z,3.00
2018-11-25T10:37:56.669Z,3.00
2018-11-25T10:40:25.622Z,3.10
2018-11-25T10:42:55.266Z,3.30
2018-11-25T10:45:25.499Z,3.30
2018-11-25T10:47:53.830Z,3.20
2018-11-25T10:50:22.191Z,3.20
2018-11-25T10:52:50.542Z,3.20
2018-11-25T10:55:19.562Z,3.30
2018-11-25T10:57:49.726Z,3.30
2018-11-25T11:00:34.410Z,3.30
2018-11-25T11:03:08.238Z,3.30
2018-11-25T11:05:41.878Z,3.40
2018-11-25T11:08:10.514Z,3.50
2018-11-25T11:10:38.706Z,3.50
2018-11-25T11:13:07.735Z,3.50
2018-11-25T11:15:35.978Z,3.50
2018-11-25T11:18:04.429Z,3.50
2018-11-25T11:20:32.714Z,3.50
2018-11-25T11:23:00.966Z,3.50
2018-11-25T11:25:29.178Z,3.50
2018-11-25T11:27:57.440Z,3.50
2018-11-25T11:30:25.731Z,3.50
2018-11-25T11:32:54.061Z,3.60
2018-11-25T11:35:22.395Z,3.60
2018-11-25T11:37:50.685Z,3.70
2018-11-25T11:40:18.965Z,3.80
2018-11-25T11:42:47.185Z,3.80
2018-11-25T11:45:15.922Z,3.80
2018-11-25T11:47:44.819Z,3.80
2018-11-25T11:50:15.846Z,3.80
2018-11-25T11:52:44.058Z,3.90
2018-11-25T11:55:14.051Z,3.90
2018-11-25T11:57:42.850Z,3.90
2018-11-25T12:00:14.494Z,3.90
2018-11-25T12:02:42.747Z,4.00
2018-11-25T12:05:11.047Z,4.00
2018-11-25T12:07:39.338Z,4.00
2018-11-25T12:10:11.750Z,4.10
2018-11-25T12:12:40.029Z,4.10
2018-11-25T12:15:12.129Z,4.10
2018-11-25T12:17:40.382Z,4.10
2018-11-25T12:20:09.632Z,4.20
2018-11-25T12:22:37.902Z,4.20
2018-11-25T12:25:09.027Z,4.20
2018-11-25T12:27:37.243Z,4.20
2018-11-25T12:30:08.050Z,4.20
2018-11-25T12:32:36.278Z,4.10
2018-11-25T12:35:04.531Z,4.10
2018-11-25T12:37:36.147Z,4.10
2018-11-25T12:40:01.931Z,4.10
2018-11-25T12:42:30.250Z,4.00
2018-11-25T12:44:58.562Z,4.00
2018-11-25T12:47:26.811Z,4.00
2018-11-25T12:49:55.088Z,4.00
2018-11-25T12:52:23.282Z,4.00
2018-11-25T12:54:51.518Z,4.10
2018-11-25T12:57:19.731Z,4.10
2018-11-25T12:59:48.002Z,4.00
2018-11-25T13:02:16.226Z,4.00
2018-11-25T13:04:44.523Z,4.10
2018-11-25T13:07:12.738Z,4.10
2018-11-25T13:09:40.934Z,4.10
2018-11-25T13:12:09.171Z,4.00
2018-11-25T13:14:37.364Z,4.10
2018-11-25T13:17:05.633Z,4.10
2018-11-25T13:19:33.930Z,4.10
2018-11-25T13:22:02.126Z,4.10
2018-11-25T13:24:30.353Z,4.00
2018-11-25T13:26:58.555Z,4.00
2018-11-25T13:29:26.784Z,4.00
2018-11-25T13:31:54.968Z,4.00
2018-11-25T13:34:23.190Z,4.00
2018-11-25T13:36:51.387Z,4.00
2018-11-25T13:39:19.605Z,4.10
2018-11-25T13:41:47.847Z,4.00
2018-11-25T13:44:22.605Z,4.00
2018-11-25T13:46:50.827Z,4.00
2018-11-25T13:49:19.042Z,4.00
2018-11-25T13:51:47.263Z,4.00
2018-11-25T13:54:15.456Z,4.00
2018-11-25T13:56:43.678Z,4.00
2018-11-25T13:59:11.878Z,4.00
2018-11-25T14:01:40.114Z,4.00
2018-11-25T14:04:08.300Z,4.00
2018-11-25T14:06:36.536Z,3.90
2018-11-25T14:09:09.846Z,4.00
2018-11-25T14:11:38.046Z,4.00
2018-11-25T14:14:05.905Z,4.10
2018-11-25T14:16:35.046Z,4.00
2018-11-25T14:19:02.452Z,4.00
2018-11-25T14:21:30.644Z,3.90
2018-11-25T14:23:58.843Z,3.90
2018-11-25T14:26:30.235Z,3.90
2018-11-25T14:28:58.463Z,3.90
2018-11-25T14:31:26.626Z,3.90
2018-11-25T14:33:54.838Z,3.90
2018-11-25T14:36:23.054Z,3.90
2018-11-25T14:38:51.221Z,3.90
2018-11-25T14:41:19.430Z,4.00
2018-11-25T14:43:47.607Z,3.90
2018-11-25T14:46:15.818Z,3.90
2018-11-25T14:48:44.026Z,3.90
2018-11-25T14:51:12.242Z,3.90
2018-11-25T14:53:40.442Z,3.90
2018-11-25T14:56:08.637Z,3.90
2018-11-25T14:58:36.854Z,3.80
2018-11-25T15:01:05.286Z,3.80
2018-11-25T15:03:33.519Z,3.80
2018-11-25T15:06:01.753Z,3.80
2018-11-25T15:08:30.018Z,3.80
2018-11-25T15:10:58.186Z,3.80
2018-11-25T15:13:26.410Z,3.80
2018-11-25T15:15:55.674Z,3.80
2018-11-25T15:18:23.898Z,3.80
2018-11-25T15:20:52.114Z,3.80
2018-11-25T15:23:20.359Z,3.80
2018-11-25T15:25:51.218Z,3.80
2018-11-25T15:28:19.422Z,3.80
2018-11-25T15:30:47.659Z,3.80
2018-11-25T15:33:15.891Z,3.80
2018-11-25T15:35:44.129Z,3.80
2018-11-25T15:38:12.328Z,3.70
2018-11-25T15:40:41.456Z,3.70
2018-11-25T15:43:10.729Z,3.70
2018-11-25T15:45:38.933Z,3.70
2018-11-25T15:48:22.718Z,3.80
2018-11-25T15:50:50.982Z,3.80
2018-11-25T15:53:19.340Z,3.80
2018-11-25T15:55:49.185Z,3.80
2018-11-25T15:58:17.437Z,3.80
2018-11-25T16:00:45.721Z,3.80
2018-11-25T16:03:14.691Z,3.80
2018-11-25T16:05:45.562Z,3.80
2018-11-25T16:08:13.806Z,3.80
2018-11-25T16:10:41.994Z,3.80
2018-11-25T16:13:10.246Z,3.80
2018-11-25T16:15:38.500Z,3.80
2018-11-25T16:18:07.029Z,3.80
2018-11-25T16:20:35.250Z,3.80
2018-11-25T16:23:06.442Z,3.80
2018-11-25T16:25:37.372Z,3.80
2018-11-25T16:28:11.690Z,3.80
2018-11-25T16:30:39.934Z,3.80
2018-11-25T16:33:08.118Z,3.80
2018-11-25T16:35:36.359Z,3.80
2018-11-25T16:38:04.875Z,3.70
2018-11-25T16:40:33.164Z,3.70
2018-11-25T16:43:01.397Z,3.60
2018-11-25T16:45:29.881Z,3.60
2018-11-25T16:47:58.206Z,3.60
2018-11-25T16:50:26.426Z,3.60
2018-11-25T16:52:54.670Z,3.60
2018-11-25T16:55:22.883Z,3.60
2018-11-25T16:57:51.186Z,3.60
2018-11-25T17:00:19.832Z,3.70
2018-11-25T17:02:48.064Z,3.70
2018-11-25T17:05:26.750Z,3.70
2018-11-25T17:08:00.187Z,3.60
2018-11-25T17:10:28.484Z,3.60
2018-11-25T17:12:56.698Z,3.60
2018-11-25T17:15:27.893Z,3.60
2018-11-25T17:17:56.115Z,3.60
2018-11-25T17:23:03.254Z,3.60
2018-11-25T17:25:31.964Z,3.70
2018-11-25T17:28:00.308Z,3.70
2018-11-25T17:30:28.803Z,3.70
2018-11-25T17:32:57.214Z,3.70
2018-11-25T17:35:26.935Z,3.70
2018-11-25T17:37:55.410Z,3.70
2018-11-25T17:40:23.727Z,3.70
2018-11-25T17:42:52.152Z,3.70
2018-11-25T17:45:27.545Z,3.70
2018-11-25T17:47:55.850Z,3.70
2018-11-25T17:50:27.234Z,3.70
2018-11-25T17:52:55.804Z,3.70
2018-11-25T17:55:26.283Z,3.70
2018-11-25T17:57:54.592Z,3.70
2018-11-25T18:00:32.150Z,3.70
2018-11-25T18:03:00.779Z,3.80
2018-11-25T18:05:28.985Z,3.80
2018-11-25T18:07:58.166Z,3.70
2018-11-25T18:10:26.728Z,3.80
2018-11-25T18:12:54.937Z,3.70
2018-11-25T18:15:23.174Z,3.80
2018-11-25T18:17:59.007Z,3.70
2018-11-25T18:20:30.066Z,3.80
2018-11-25T18:22:58.266Z,3.70
2018-11-25T18:25:26.495Z,3.70
2018-11-25T18:28:00.322Z,3.70
2018-11-25T18:30:23.039Z,3.70
2018-11-25T18:32:51.231Z,3.70
2018-11-25T18:35:19.641Z,3.70
2018-11-25T18:37:48.209Z,3.70
2018-11-25T18:40:16.580Z,3.70
2018-11-25T18:42:44.905Z,3.70
2018-11-25T18:45:17.614Z,3.70
2018-11-25T18:47:48.101Z,3.70
2018-11-25T18:50:17.174Z,3.70
2018-11-25T18:52:48.356Z,3.70
2018-11-25T18:55:15.295Z,3.70
2018-11-25T18:57:43.474Z,3.70
2018-11-25T19:00:13.818Z,3.80
2018-11-25T19:02:43.962Z,3.80
2018-11-25T19:05:12.307Z,3.80
2018-11-25T19:07:40.526Z,3.80
2018-11-25T19:10:12.454Z,3.70
2018-11-25T19:12:44.384Z,3.70
2018-11-25T19:15:10.579Z,3.80
2018-11-25T19:17:38.803Z,3.80
2018-11-25T19:20:10.970Z,3.70
2018-11-25T19:22:39.193Z,3.70
2018-11-25T19:25:08.874Z,3.70
2018-11-25T19:27:37.217Z,3.70
2018-11-25T19:30:15.115Z,3.70
2018-11-25T19:32:44.551Z,3.70
2018-11-25T19:35:13.931Z,3.70
2018-11-25T19:37:43.787Z,3.70
2018-11-25T19:40:19.859Z,3.70
2018-11-25T19:42:49.355Z,3.70
2018-11-25T19:45:20.878Z,3.70
2018-11-25T19:47:49.787Z,3.60
2018-11-25T19:50:25.622Z,3.70
2018-11-25T19:52:54.526Z,3.60
2018-11-25T19:55:22.856Z,3.70
2018-11-25T19:57:51.131Z,3.70
2018-11-25T20:00:21.508Z,3.70
2018-11-25T20:02:49.759Z,3.70
2018-11-25T20:05:18.158Z,3.70
2018-11-25T20:07:46.711Z,3.70
2018-11-25T20:10:16.280Z,3.70
2018-11-25T20:12:45.710Z,3.80
2018-11-25T20:15:16.255Z,3.70
2018-11-25T20:17:53.687Z,3.70
2018-11-25T20:20:15.615Z,3.70
2018-11-25T20:22:47.752Z,3.70
2018-11-25T20:25:16.499Z,3.70
2018-11-25T20:27:46.726Z,3.70
2018-11-25T20:30:15.940Z,3.70
2018-11-25T20:32:49.639Z,3.70
2018-11-25T20:35:17.904Z,3.70
2018-11-25T20:37:51.964Z,3.70
2018-11-25T20:40:20.263Z,3.70
2018-11-25T20:42:51.446Z,3.70
2018-11-25T20:45:25.952Z,3.70
2018-11-25T20:47:54.994Z,3.70
2018-11-25T20:50:23.276Z,3.70
2018-11-25T20:52:57.309Z,3.70
2018-11-25T20:55:30.881Z,3.60
2018-11-25T20:57:59.496Z,3.60
2018-11-25T21:00:29.873Z,3.60
2018-11-25T21:02:58.494Z,3.60
2018-11-25T21:05:28.814Z,3.60
2018-11-25T21:07:57.987Z,3.60
2018-11-25T21:10:26.549Z,3.60
2018-11-25T21:12:56.932Z,3.60
2018-11-25T21:15:25.468Z,3.60
2018-11-25T21:17:54.236Z,3.70
2018-11-25T21:20:25.586Z,3.70
2018-11-25T21:22:53.809Z,3.70
2018-11-25T21:25:23.014Z,3.60
2018-11-25T21:27:51.239Z,3.60
2018-11-25T21:30:23.703Z,3.70
2018-11-25T21:32:53.307Z,3.70
2018-11-25T21:35:21.554Z,3.70
2018-11-25T21:37:49.747Z,3.70
2018-11-25T21:40:19.103Z,3.60
2018-11-25T21:42:47.404Z,3.60
2018-11-25T21:45:16.714Z,3.60
2018-11-25T21:47:45.062Z,3.60
2018-11-25T21:50:15.638Z,3.60
2018-11-25T21:52:43.881Z,3.60
2018-11-25T21:55:13.394Z,3.70
2018-11-25T21:57:41.647Z,3.70
2018-11-25T22:00:13.163Z,3.70
2018-11-25T22:02:41.412Z,3.70
2018-11-25T22:05:10.478Z,3.70
2018-11-25T22:07:38.774Z,3.70
2018-11-25T22:10:08.839Z,3.70
2018-11-25T22:12:37.900Z,3.70
2018-11-25T22:15:09.302Z,3.70
2018-11-25T22:17:37.574Z,3.70
2018-11-25T22:20:07.775Z,3.70
2018-11-25T22:22:36.045Z,3.70
2018-11-25T22:25:05.817Z,3.70
2018-11-25T22:27:34.029Z,3.70
2018-11-25T22:30:02.309Z,3.70
2018-11-25T22:32:30.563Z,3.70
2018-11-25T22:34:58.771Z,3.80
2018-11-25T22:37:27.031Z,3.80
2018-11-25T22:39:55.246Z,3.70
2018-11-25T22:42:23.435Z,3.70
2018-11-25T22:44:51.676Z,3.70
2018-11-25T22:47:19.901Z,3.70
2018-11-25T22:49:48.067Z,3.80
2018-11-25T22:52:16.337Z,3.80
2018-11-25T22:54:44.536Z,3.70
2018-11-25T22:57:12.815Z,3.70
2018-11-25T22:59:41.112Z,3.70
2018-11-25T23:02:09.592Z,3.70
2018-11-25T23:04:49.066Z,3.70
2018-11-25T23:07:17.296Z,3.70
2018-11-25T23:09:45.482Z,3.70
2018-11-25T23:12:13.691Z,3.70
2018-11-25T23:14:42.203Z,3.70
2018-11-25T23:17:10.202Z,3.80
2018-11-25T23:19:38.467Z,3.80
2018-11-25T23:22:06.758Z,3.80
2018-11-25T23:24:34.987Z,3.80
2018-11-25T23:27:03.268Z,3.80
2018-11-25T23:29:31.525Z,3.90
2018-11-25T23:32:00.086Z,3.80
2018-11-25T23:34:28.714Z,3.80
2018-11-25T23:36:57.598Z,3.80
2018-11-25T23:39:26.223Z,3.80
2018-11-25T23:41:54.937Z,3.80
2018-11-25T23:44:23.553Z,3.80
2018-11-25T23:46:52.207Z,3.80
2018-11-25T23:49:20.788Z,3.80
2018-11-25T23:51:49.428Z,3.80
2018-11-25T23:54:18.057Z,3.80
2018-11-25T23:56:46.754Z,3.80
2018-11-25T23:59:15.409Z,3.80
